sensor_id;sensor_type;location;lat;lon;timestamp;temperature;humidity
10873;DHT22;34586;53.616;10.032;2023-05-10T00:01:37;14.30;1.00
10873;DHT22;34586;53.616;10.032;2023-05-10T00:04:03;14.30;1.00
10873;DHT22;34586;53.616;10.032;2023-05-10T00:06:29;14.20;4.70
10873;DHT22;34586;53.616;10.032;2023-05-10T00:08:55;14.20;1.00
10873;DHT22;34586;53.616;10.032;2023-05-10T00:11:20;14.20;1.00
10873;DHT22;34586;53.616;10.032;2023-05-10T00:13:46;14.10;1.00
10873;DHT22;34586;53.616;10.032;2023-05-10T00:16:12;14.10;1.00
10873;DHT22;34586;53.616;10.032;2023-05-10T00:18:39;14.10;1.00
10873;DHT22;34586;53.616;10.032;2023-05-10T00:21:05;14.00;1.00
10873;DHT22;34586;53.616;10.032;2023-05-10T00:23:31;14.00;1.00
10873;DHT22;34586;53.616;10.032;2023-05-10T00:25:56;14.00;1.00
10873;DHT22;34586;53.616;10.032;2023-05-10T00:28:22;14.00;1.00
10873;DHT22;34586;53.616;10.032;2023-05-10T00:30:47;13.90;1.00
10873;DHT22;34586;53.616;10.032;2023-05-10T00:33:13;13.90;1.00
10873;DHT22;34586;53.616;10.032;2023-05-10T00:35:39;13.80;1.00
10873;DHT22;34586;53.616;10.032;2023-05-10T00:38:04;13.90;16.30
10873;DHT22;34586;53.616;10.032;2023-05-10T00:40:30;13.90;37.70
10873;DHT22;34586;53.616;10.032;2023-05-10T00:42:56;13.80;49.50
10873;DHT22;34586;53.616;10.032;2023-05-10T00:45:23;13.70;81.80
10873;DHT22;34586;53.616;10.032;2023-05-10T00:47:48;13.70;99.90
10873;DHT22;34586;53.616;10.032;2023-05-10T00:50:14;13.70;99.90
10873;DHT22;34586;53.616;10.032;2023-05-10T00:52:41;13.60;99.90
10873;DHT22;34586;53.616;10.032;2023-05-10T00:55:07;13.60;99.90
10873;DHT22;34586;53.616;10.032;2023-05-10T00:57:34;13.50;99.90
10873;DHT22;34586;53.616;10.032;2023-05-10T01:00:02;13.60;99.90
10873;DHT22;34586;53.616;10.032;2023-05-10T01:02:28;13.60;99.90
10873;DHT22;34586;53.616;10.032;2023-05-10T01:04:54;13.60;99.90
10873;DHT22;34586;53.616;10.032;2023-05-10T01:07:20;13.60;99.90
10873;DHT22;34586;53.616;10.032;2023-05-10T01:09:45;13.50;99.90
10873;DHT22;34586;53.616;10.032;2023-05-10T01:12:11;13.50;99.90
10873;DHT22;34586;53.616;10.032;2023-05-10T01:14:37;13.40;99.90
10873;DHT22;34586;53.616;10.032;2023-05-10T01:17:04;13.40;99.90
10873;DHT22;34586;53.616;10.032;2023-05-10T01:19:31;13.40;99.90
10873;DHT22;34586;53.616;10.032;2023-05-10T01:33:46;13.30;99.90
10873;DHT22;34586;53.616;10.032;2023-05-10T01:36:40;13.20;99.90
10873;DHT22;34586;53.616;10.032;2023-05-10T01:39:15;13.20;99.90
10873;DHT22;34586;53.616;10.032;2023-05-10T01:44:29;13.10;1.00
10873;DHT22;34586;53.616;10.032;2023-05-10T01:47:04;13.10;1.00
10873;DHT22;34586;53.616;10.032;2023-05-10T01:49:36;13.10;1.00
10873;DHT22;34586;53.616;10.032;2023-05-10T01:52:09;13.10;1.00
10873;DHT22;34586;53.616;10.032;2023-05-10T01:54:38;13.00;1.00
10873;DHT22;34586;53.616;10.032;2023-05-10T01:57:09;13.10;1.00
10873;DHT22;34586;53.616;10.032;2023-05-10T01:59:36;13.00;1.00
10873;DHT22;34586;53.616;10.032;2023-05-10T02:02:07;13.00;1.00
10873;DHT22;34586;53.616;10.032;2023-05-10T02:04:38;13.00;1.00
10873;DHT22;34586;53.616;10.032;2023-05-10T02:07:06;12.90;1.00
10873;DHT22;34586;53.616;10.032;2023-05-10T02:09:33;13.10;1.00
10873;DHT22;34586;53.616;10.032;2023-05-10T02:12:01;13.00;1.00
10873;DHT22;34586;53.616;10.032;2023-05-10T02:14:30;13.00;1.00
10873;DHT22;34586;53.616;10.032;2023-05-10T02:16:58;12.80;1.00
10873;DHT22;34586;53.616;10.032;2023-05-10T02:19:26;12.80;1.00
10873;DHT22;34586;53.616;10.032;2023-05-10T02:21:54;12.70;1.00
10873;DHT22;34586;53.616;10.032;2023-05-10T02:24:21;12.80;1.00
10873;DHT22;34586;53.616;10.032;2023-05-10T02:26:49;12.80;1.00
10873;DHT22;34586;53.616;10.032;2023-05-10T02:29:15;12.80;1.00
10873;DHT22;34586;53.616;10.032;2023-05-10T02:31:42;12.70;1.00
10873;DHT22;34586;53.616;10.032;2023-05-10T02:34:10;12.60;1.00
10873;DHT22;34586;53.616;10.032;2023-05-10T02:36:37;12.70;1.00
10873;DHT22;34586;53.616;10.032;2023-05-10T02:39:03;12.70;1.00
10873;DHT22;34586;53.616;10.032;2023-05-10T02:41:31;12.60;1.00
10873;DHT22;34586;53.616;10.032;2023-05-10T02:43:59;12.40;1.00
10873;DHT22;34586;53.616;10.032;2023-05-10T02:46:26;12.60;1.00
10873;DHT22;34586;53.616;10.032;2023-05-10T02:48:52;12.50;1.00
10873;DHT22;34586;53.616;10.032;2023-05-10T02:51:18;12.50;1.00
10873;DHT22;34586;53.616;10.032;2023-05-10T02:53:47;12.50;1.00
10873;DHT22;34586;53.616;10.032;2023-05-10T02:56:22;12.50;1.00
10873;DHT22;34586;53.616;10.032;2023-05-10T02:58:48;12.40;1.00
10873;DHT22;34586;53.616;10.032;2023-05-10T03:01:14;12.30;39.10
10873;DHT22;34586;53.616;10.032;2023-05-10T03:03:40;12.30;42.10
10873;DHT22;34586;53.616;10.032;2023-05-10T03:06:06;12.30;72.60
10873;DHT22;34586;53.616;10.032;2023-05-10T03:08:32;12.30;99.90
10873;DHT22;34586;53.616;10.032;2023-05-10T03:11:21;12.30;97.90
10873;DHT22;34586;53.616;10.032;2023-05-10T03:16:27;12.30;96.90
10873;DHT22;34586;53.616;10.032;2023-05-10T03:19:17;12.20;93.60
10873;DHT22;34586;53.616;10.032;2023-05-10T03:21:50;12.20;99.00
10873;DHT22;34586;53.616;10.032;2023-05-10T03:24:20;12.20;99.90
10873;DHT22;34586;53.616;10.032;2023-05-10T03:26:47;12.30;99.90
10873;DHT22;34586;53.616;10.032;2023-05-10T03:29:14;12.30;81.60
10873;DHT22;34586;53.616;10.032;2023-05-10T03:31:41;12.30;49.40
10873;DHT22;34586;53.616;10.032;2023-05-10T03:34:07;12.30;77.20
10873;DHT22;34586;53.616;10.032;2023-05-10T03:36:32;12.30;99.90
10873;DHT22;34586;53.616;10.032;2023-05-10T03:38:58;12.30;1.00
10873;DHT22;34586;53.616;10.032;2023-05-10T03:41:24;12.30;1.00
10873;DHT22;34586;53.616;10.032;2023-05-10T03:43:51;12.30;1.00
10873;DHT22;34586;53.616;10.032;2023-05-10T03:46:16;12.20;1.00
10873;DHT22;34586;53.616;10.032;2023-05-10T03:48:42;12.20;99.90
10873;DHT22;34586;53.616;10.032;2023-05-10T03:51:07;12.20;99.90
10873;DHT22;34586;53.616;10.032;2023-05-10T03:53:33;12.20;1.00
10873;DHT22;34586;53.616;10.032;2023-05-10T03:55:59;12.20;99.90
10873;DHT22;34586;53.616;10.032;2023-05-10T03:58:24;12.30;1.00
10873;DHT22;34586;53.616;10.032;2023-05-10T04:00:51;12.30;1.00
10873;DHT22;34586;53.616;10.032;2023-05-10T04:03:17;12.30;1.00
10873;DHT22;34586;53.616;10.032;2023-05-10T04:05:43;12.30;24.30
10873;DHT22;34586;53.616;10.032;2023-05-10T04:08:08;12.30;1.00
10873;DHT22;34586;53.616;10.032;2023-05-10T04:10:34;12.30;99.90
10873;DHT22;34586;53.616;10.032;2023-05-10T04:13:00;12.50;1.00
10873;DHT22;34586;53.616;10.032;2023-05-10T04:15:25;12.40;1.00
10873;DHT22;34586;53.616;10.032;2023-05-10T04:17:51;12.40;1.00
10873;DHT22;34586;53.616;10.032;2023-05-10T04:20:17;12.40;99.90
10873;DHT22;34586;53.616;10.032;2023-05-10T04:22:42;12.50;99.90
10873;DHT22;34586;53.616;10.032;2023-05-10T04:25:08;12.50;1.00
10873;DHT22;34586;53.616;10.032;2023-05-10T04:27:34;12.20;95.80
10873;DHT22;34586;53.616;10.032;2023-05-10T04:30:00;12.50;1.00
10873;DHT22;34586;53.616;10.032;2023-05-10T04:32:25;12.60;99.90
10873;DHT22;34586;53.616;10.032;2023-05-10T04:34:52;12.50;1.00
10873;DHT22;34586;53.616;10.032;2023-05-10T04:37:18;12.50;99.90
10873;DHT22;34586;53.616;10.032;2023-05-10T04:39:45;12.60;1.00
10873;DHT22;34586;53.616;10.032;2023-05-10T04:42:10;12.60;99.90
10873;DHT22;34586;53.616;10.032;2023-05-10T04:44:36;12.60;1.00
10873;DHT22;34586;53.616;10.032;2023-05-10T04:47:02;12.60;99.90
10873;DHT22;34586;53.616;10.032;2023-05-10T04:49:29;12.60;99.90
10873;DHT22;34586;53.616;10.032;2023-05-10T04:51:55;12.60;99.90
10873;DHT22;34586;53.616;10.032;2023-05-10T04:54:20;12.70;1.00
10873;DHT22;34586;53.616;10.032;2023-05-10T04:56:46;12.70;1.00
10873;DHT22;34586;53.616;10.032;2023-05-10T04:59:12;12.80;99.90
10873;DHT22;34586;53.616;10.032;2023-05-10T05:01:37;12.80;41.80
10873;DHT22;34586;53.616;10.032;2023-05-10T05:04:03;12.80;99.90
10873;DHT22;34586;53.616;10.032;2023-05-10T05:06:28;12.80;1.00
10873;DHT22;34586;53.616;10.032;2023-05-10T05:08:54;12.90;1.00
10873;DHT22;34586;53.616;10.032;2023-05-10T05:11:20;12.90;13.30
10873;DHT22;34586;53.616;10.032;2023-05-10T05:13:46;13.10;1.00
10873;DHT22;34586;53.616;10.032;2023-05-10T05:16:12;13.10;99.90
10873;DHT22;34586;53.616;10.032;2023-05-10T05:18:37;13.20;99.90
10873;DHT22;34586;53.616;10.032;2023-05-10T05:21:03;13.30;1.00
10873;DHT22;34586;53.616;10.032;2023-05-10T05:23:38;13.30;1.00
10873;DHT22;34586;53.616;10.032;2023-05-10T05:26:03;13.40;1.00
10873;DHT22;34586;53.616;10.032;2023-05-10T05:28:29;13.40;99.90
10873;DHT22;34586;53.616;10.032;2023-05-10T05:30:58;13.50;1.00
10873;DHT22;34586;53.616;10.032;2023-05-10T05:33:23;13.50;1.00
10873;DHT22;34586;53.616;10.032;2023-05-10T05:35:49;13.60;99.90
10873;DHT22;34586;53.616;10.032;2023-05-10T05:38:16;13.70;99.90
10873;DHT22;34586;53.616;10.032;2023-05-10T05:40:42;13.80;1.00
10873;DHT22;34586;53.616;10.032;2023-05-10T05:43:08;13.90;99.90
10873;DHT22;34586;53.616;10.032;2023-05-10T05:45:33;14.00;1.00
10873;DHT22;34586;53.616;10.032;2023-05-10T05:47:59;14.20;50.90
10873;DHT22;34586;53.616;10.032;2023-05-10T05:50:25;14.30;99.90
10873;DHT22;34586;53.616;10.032;2023-05-10T05:52:51;14.40;1.00
10873;DHT22;34586;53.616;10.032;2023-05-10T05:55:16;14.50;1.00
10873;DHT22;34586;53.616;10.032;2023-05-10T05:57:42;14.60;1.00
10873;DHT22;34586;53.616;10.032;2023-05-10T06:00:08;14.70;99.90
10873;DHT22;34586;53.616;10.032;2023-05-10T06:02:33;14.90;99.90
10873;DHT22;34586;53.616;10.032;2023-05-10T06:04:59;14.80;99.90
10873;DHT22;34586;53.616;10.032;2023-05-10T06:07:25;14.90;1.00
10873;DHT22;34586;53.616;10.032;2023-05-10T06:09:51;15.10;98.50
10873;DHT22;34586;53.616;10.032;2023-05-10T06:12:16;15.20;99.90
10873;DHT22;34586;53.616;10.032;2023-05-10T06:14:42;15.20;99.80
10873;DHT22;34586;53.616;10.032;2023-05-10T06:17:07;15.20;99.90
10873;DHT22;34586;53.616;10.032;2023-05-10T06:19:33;15.40;1.00
10873;DHT22;34586;53.616;10.032;2023-05-10T06:21:58;15.50;99.90
10873;DHT22;34586;53.616;10.032;2023-05-10T06:24:24;15.50;22.60
10873;DHT22;34586;53.616;10.032;2023-05-10T06:26:50;15.40;99.90
10873;DHT22;34586;53.616;10.032;2023-05-10T06:29:15;15.60;1.00
10873;DHT22;34586;53.616;10.032;2023-05-10T06:31:41;15.80;1.00
10873;DHT22;34586;53.616;10.032;2023-05-10T06:34:07;15.90;99.90
10873;DHT22;34586;53.616;10.032;2023-05-10T06:36:33;16.10;21.50
10873;DHT22;34586;53.616;10.032;2023-05-10T06:38:59;15.80;1.00
10873;DHT22;34586;53.616;10.032;2023-05-10T06:41:24;15.80;50.30
10873;DHT22;34586;53.616;10.032;2023-05-10T06:43:50;15.80;99.90
10873;DHT22;34586;53.616;10.032;2023-05-10T06:46:16;15.90;99.90
10873;DHT22;34586;53.616;10.032;2023-05-10T06:48:42;15.90;99.90
10873;DHT22;34586;53.616;10.032;2023-05-10T06:51:07;16.00;99.90
10873;DHT22;34586;53.616;10.032;2023-05-10T06:53:33;16.10;99.90
10873;DHT22;34586;53.616;10.032;2023-05-10T06:55:58;16.20;1.00
10873;DHT22;34586;53.616;10.032;2023-05-10T06:58:24;16.30;1.00
10873;DHT22;34586;53.616;10.032;2023-05-10T07:00:50;16.40;1.00
10873;DHT22;34586;53.616;10.032;2023-05-10T07:03:15;16.40;1.00
10873;DHT22;34586;53.616;10.032;2023-05-10T07:05:41;16.40;1.00
10873;DHT22;34586;53.616;10.032;2023-05-10T07:08:06;16.60;1.00
10873;DHT22;34586;53.616;10.032;2023-05-10T07:10:33;16.60;99.90
10873;DHT22;34586;53.616;10.032;2023-05-10T07:12:58;16.70;99.90
10873;DHT22;34586;53.616;10.032;2023-05-10T07:15:24;16.70;96.00
10873;DHT22;34586;53.616;10.032;2023-05-10T07:17:49;16.60;99.90
10873;DHT22;34586;53.616;10.032;2023-05-10T07:20:15;16.60;29.10
10873;DHT22;34586;53.616;10.032;2023-05-10T07:22:41;16.70;1.00
10873;DHT22;34586;53.616;10.032;2023-05-10T07:25:06;16.70;1.00
10873;DHT22;34586;53.616;10.032;2023-05-10T07:27:32;16.70;1.00
10873;DHT22;34586;53.616;10.032;2023-05-10T07:29:57;16.80;1.00
10873;DHT22;34586;53.616;10.032;2023-05-10T07:32:23;16.90;99.90
10873;DHT22;34586;53.616;10.032;2023-05-10T07:34:49;17.00;99.90
10873;DHT22;34586;53.616;10.032;2023-05-10T07:37:15;17.00;99.90
10873;DHT22;34586;53.616;10.032;2023-05-10T07:39:40;17.00;99.90
10873;DHT22;34586;53.616;10.032;2023-05-10T07:42:06;17.10;99.90
10873;DHT22;34586;53.616;10.032;2023-05-10T07:44:31;17.10;99.90
10873;DHT22;34586;53.616;10.032;2023-05-10T07:46:57;17.20;99.90
10873;DHT22;34586;53.616;10.032;2023-05-10T07:49:22;17.00;99.90
10873;DHT22;34586;53.616;10.032;2023-05-10T07:51:51;17.10;99.90
10873;DHT22;34586;53.616;10.032;2023-05-10T07:54:17;17.00;1.00
10873;DHT22;34586;53.616;10.032;2023-05-10T07:56:42;17.20;1.00
10873;DHT22;34586;53.616;10.032;2023-05-10T07:59:16;17.30;99.90
10873;DHT22;34586;53.616;10.032;2023-05-10T08:01:42;17.30;1.00
10873;DHT22;34586;53.616;10.032;2023-05-10T08:04:08;17.30;67.90
10873;DHT22;34586;53.616;10.032;2023-05-10T08:06:34;17.30;1.00
10873;DHT22;34586;53.616;10.032;2023-05-10T08:09:00;17.40;99.90
10873;DHT22;34586;53.616;10.032;2023-05-10T08:11:25;17.40;46.90
10873;DHT22;34586;53.616;10.032;2023-05-10T08:13:52;17.50;99.90
10873;DHT22;34586;53.616;10.032;2023-05-10T08:16:18;17.60;99.90
10873;DHT22;34586;53.616;10.032;2023-05-10T08:18:45;17.70;14.30
10873;DHT22;34586;53.616;10.032;2023-05-10T08:21:12;17.80;99.90
10873;DHT22;34586;53.616;10.032;2023-05-10T08:23:37;17.90;1.00
10873;DHT22;34586;53.616;10.032;2023-05-10T08:26:04;18.00;1.00
10873;DHT22;34586;53.616;10.032;2023-05-10T08:28:30;18.10;99.90
10873;DHT22;34586;53.616;10.032;2023-05-10T08:30:56;18.20;99.90
10873;DHT22;34586;53.616;10.032;2023-05-10T08:33:21;18.30;99.90
10873;DHT22;34586;53.616;10.032;2023-05-10T08:35:47;18.20;1.00
10873;DHT22;34586;53.616;10.032;2023-05-10T08:38:13;18.30;1.00
10873;DHT22;34586;53.616;10.032;2023-05-10T08:40:41;18.20;1.00
10873;DHT22;34586;53.616;10.032;2023-05-10T08:43:09;18.20;1.00
10873;DHT22;34586;53.616;10.032;2023-05-10T08:45:38;18.20;1.00
10873;DHT22;34586;53.616;10.032;2023-05-10T08:48:06;18.20;1.00
10873;DHT22;34586;53.616;10.032;2023-05-10T08:50:31;18.10;99.90
10873;DHT22;34586;53.616;10.032;2023-05-10T08:53:00;18.10;1.00
10873;DHT22;34586;53.616;10.032;2023-05-10T08:55:26;17.90;99.90
10873;DHT22;34586;53.616;10.032;2023-05-10T08:57:52;17.80;95.90
10873;DHT22;34586;53.616;10.032;2023-05-10T09:00:18;17.80;99.90
10873;DHT22;34586;53.616;10.032;2023-05-10T09:02:44;18.00;99.90
10873;DHT22;34586;53.616;10.032;2023-05-10T09:05:12;18.10;99.90
10873;DHT22;34586;53.616;10.032;2023-05-10T09:07:37;18.30;99.90
10873;DHT22;34586;53.616;10.032;2023-05-10T09:10:04;18.30;1.00
10873;DHT22;34586;53.616;10.032;2023-05-10T09:12:30;18.40;99.90
10873;DHT22;34586;53.616;10.032;2023-05-10T09:14:56;18.50;1.00
10873;DHT22;34586;53.616;10.032;2023-05-10T09:17:24;18.70;99.90
10873;DHT22;34586;53.616;10.032;2023-05-10T09:19:58;18.90;99.90
10873;DHT22;34586;53.616;10.032;2023-05-10T09:22:24;18.90;99.90
10873;DHT22;34586;53.616;10.032;2023-05-10T09:25:06;19.00;1.00
10873;DHT22;34586;53.616;10.032;2023-05-10T09:27:32;18.80;1.00
10873;DHT22;34586;53.616;10.032;2023-05-10T09:29:58;18.80;99.90
10873;DHT22;34586;53.616;10.032;2023-05-10T09:32:40;18.80;99.90
10873;DHT22;34586;53.616;10.032;2023-05-10T09:35:10;18.70;1.00
10873;DHT22;34586;53.616;10.032;2023-05-10T09:37:35;18.70;99.90
10873;DHT22;34586;53.616;10.032;2023-05-10T09:40:04;18.70;1.00
10873;DHT22;34586;53.616;10.032;2023-05-10T09:42:30;18.90;99.90
10873;DHT22;34586;53.616;10.032;2023-05-10T09:45:09;18.80;99.90
10873;DHT22;34586;53.616;10.032;2023-05-10T09:47:35;18.70;1.00
10873;DHT22;34586;53.616;10.032;2023-05-10T09:50:02;18.60;1.00
10873;DHT22;34586;53.616;10.032;2023-05-10T09:52:30;18.60;69.40
10873;DHT22;34586;53.616;10.032;2023-05-10T09:54:56;18.50;1.00
10873;DHT22;34586;53.616;10.032;2023-05-10T09:57:23;18.60;37.00
10873;DHT22;34586;53.616;10.032;2023-05-10T09:59:49;18.50;1.00
10873;DHT22;34586;53.616;10.032;2023-05-10T10:02:16;18.60;1.00
10873;DHT22;34586;53.616;10.032;2023-05-10T10:04:42;18.60;99.90
10873;DHT22;34586;53.616;10.032;2023-05-10T10:07:09;18.50;99.90
10873;DHT22;34586;53.616;10.032;2023-05-10T10:09:35;18.50;99.90
10873;DHT22;34586;53.616;10.032;2023-05-10T10:12:01;18.30;1.00
10873;DHT22;34586;53.616;10.032;2023-05-10T10:14:28;17.90;1.00
10873;DHT22;34586;53.616;10.032;2023-05-10T10:16:55;17.50;99.90
10873;DHT22;34586;53.616;10.032;2023-05-10T10:19:21;17.30;1.00
10873;DHT22;34586;53.616;10.032;2023-05-10T10:21:48;16.90;1.00
10873;DHT22;34586;53.616;10.032;2023-05-10T10:24:14;16.60;1.00
10873;DHT22;34586;53.616;10.032;2023-05-10T10:26:40;16.50;1.00
10873;DHT22;34586;53.616;10.032;2023-05-10T10:31:40;16.30;99.90
10873;DHT22;34586;53.616;10.032;2023-05-10T10:34:09;16.20;1.00
10873;DHT22;34586;53.616;10.032;2023-05-10T10:36:44;16.20;99.90
10873;DHT22;34586;53.616;10.032;2023-05-10T10:39:11;16.10;1.00
10873;DHT22;34586;53.616;10.032;2023-05-10T10:41:49;16.20;79.10
10873;DHT22;34586;53.616;10.032;2023-05-10T10:52:38;16.20;1.00
10873;DHT22;34586;53.616;10.032;2023-05-10T10:55:08;16.30;99.90
10873;DHT22;34586;53.616;10.032;2023-05-10T11:03:08;16.30;1.00
10873;DHT22;34586;53.616;10.032;2023-05-10T11:05:49;16.30;1.00
10873;DHT22;34586;53.616;10.032;2023-05-10T11:08:27;16.40;1.00
10873;DHT22;34586;53.616;10.032;2023-05-10T11:11:16;16.50;1.00
10873;DHT22;34586;53.616;10.032;2023-05-10T11:13:44;16.50;80.60
10873;DHT22;34586;53.616;10.032;2023-05-10T11:16:25;16.70;19.10
10873;DHT22;34586;53.616;10.032;2023-05-10T11:19:13;16.70;1.00
10873;DHT22;34586;53.616;10.032;2023-05-10T11:22:11;16.80;1.00
10873;DHT22;34586;53.616;10.032;2023-05-10T11:24:38;16.90;1.00
10873;DHT22;34586;53.616;10.032;2023-05-10T11:27:05;17.00;1.00
10873;DHT22;34586;53.616;10.032;2023-05-10T11:29:31;16.90;1.00
10873;DHT22;34586;53.616;10.032;2023-05-10T11:31:58;16.80;1.00
10873;DHT22;34586;53.616;10.032;2023-05-10T11:36:54;16.80;1.00
10873;DHT22;34586;53.616;10.032;2023-05-10T11:39:21;16.80;1.00
10873;DHT22;34586;53.616;10.032;2023-05-10T11:41:50;16.80;1.00
10873;DHT22;34586;53.616;10.032;2023-05-10T11:44:15;16.70;1.00
10873;DHT22;34586;53.616;10.032;2023-05-10T11:46:41;16.70;1.00
10873;DHT22;34586;53.616;10.032;2023-05-10T11:49:07;16.90;1.00
10873;DHT22;34586;53.616;10.032;2023-05-10T11:51:34;17.00;99.90
10873;DHT22;34586;53.616;10.032;2023-05-10T11:54:06;17.10;99.90
10873;DHT22;34586;53.616;10.032;2023-05-10T11:56:33;17.10;99.90
10873;DHT22;34586;53.616;10.032;2023-05-10T11:59:00;17.00;99.90
10873;DHT22;34586;53.616;10.032;2023-05-10T12:01:28;16.80;1.00
10873;DHT22;34586;53.616;10.032;2023-05-10T12:03:55;16.90;1.00
10873;DHT22;34586;53.616;10.032;2023-05-10T12:06:30;16.90;1.00
10873;DHT22;34586;53.616;10.032;2023-05-10T12:08:57;16.80;1.00
10873;DHT22;34586;53.616;10.032;2023-05-10T12:11:28;16.80;1.00
10873;DHT22;34586;53.616;10.032;2023-05-10T12:13:54;16.80;22.60
10873;DHT22;34586;53.616;10.032;2023-05-10T12:16:22;16.80;8.40
10873;DHT22;34586;53.616;10.032;2023-05-10T12:18:48;16.90;99.90
10873;DHT22;34586;53.616;10.032;2023-05-10T12:21:15;17.00;1.00
10873;DHT22;34586;53.616;10.032;2023-05-10T12:23:41;17.10;99.90
10873;DHT22;34586;53.616;10.032;2023-05-10T12:26:09;17.20;99.90
10873;DHT22;34586;53.616;10.032;2023-05-10T12:28:35;17.10;1.00
10873;DHT22;34586;53.616;10.032;2023-05-10T12:31:02;17.20;1.00
10873;DHT22;34586;53.616;10.032;2023-05-10T12:33:35;17.20;1.00
10873;DHT22;34586;53.616;10.032;2023-05-10T12:36:02;17.20;1.00
10873;DHT22;34586;53.616;10.032;2023-05-10T12:38:33;17.40;1.00
10873;DHT22;34586;53.616;10.032;2023-05-10T12:41:01;17.50;99.90
10873;DHT22;34586;53.616;10.032;2023-05-10T12:43:27;17.40;1.00
10873;DHT22;34586;53.616;10.032;2023-05-10T12:45:53;17.60;1.00
10873;DHT22;34586;53.616;10.032;2023-05-10T12:48:19;17.80;1.00
10873;DHT22;34586;53.616;10.032;2023-05-10T12:50:45;17.80;1.00
10873;DHT22;34586;53.616;10.032;2023-05-10T12:53:13;18.00;99.90
10873;DHT22;34586;53.616;10.032;2023-05-10T12:55:39;18.10;99.90
10873;DHT22;34586;53.616;10.032;2023-05-10T12:58:05;18.30;99.90
10873;DHT22;34586;53.616;10.032;2023-05-10T13:00:30;18.30;99.90
10873;DHT22;34586;53.616;10.032;2023-05-10T13:02:56;18.20;98.90
10873;DHT22;34586;53.616;10.032;2023-05-10T13:05:21;18.10;1.00
10873;DHT22;34586;53.616;10.032;2023-05-10T13:07:47;18.00;99.90
10873;DHT22;34586;53.616;10.032;2023-05-10T13:10:12;18.20;99.90
10873;DHT22;34586;53.616;10.032;2023-05-10T13:12:38;18.00;99.90
10873;DHT22;34586;53.616;10.032;2023-05-10T13:15:04;18.10;1.00
10873;DHT22;34586;53.616;10.032;2023-05-10T13:17:30;18.00;99.90
10873;DHT22;34586;53.616;10.032;2023-05-10T13:19:55;18.00;99.90
10873;DHT22;34586;53.616;10.032;2023-05-10T13:22:21;17.80;99.90
10873;DHT22;34586;53.616;10.032;2023-05-10T13:24:47;18.10;1.00
10873;DHT22;34586;53.616;10.032;2023-05-10T13:27:12;18.20;1.00
10873;DHT22;34586;53.616;10.032;2023-05-10T13:29:38;18.30;99.90
10873;DHT22;34586;53.616;10.032;2023-05-10T13:32:03;18.20;99.90
10873;DHT22;34586;53.616;10.032;2023-05-10T13:34:29;18.00;99.90
10873;DHT22;34586;53.616;10.032;2023-05-10T13:36:55;18.20;1.00
10873;DHT22;34586;53.616;10.032;2023-05-10T13:39:22;18.30;99.90
10873;DHT22;34586;53.616;10.032;2023-05-10T13:41:47;18.30;99.90
10873;DHT22;34586;53.616;10.032;2023-05-10T13:44:13;18.50;62.80
10873;DHT22;34586;53.616;10.032;2023-05-10T13:46:40;18.70;99.90
10873;DHT22;34586;53.616;10.032;2023-05-10T13:49:06;18.80;1.00
10873;DHT22;34586;53.616;10.032;2023-05-10T13:51:33;18.80;1.00
10873;DHT22;34586;53.616;10.032;2023-05-10T13:53:59;18.60;99.90
10873;DHT22;34586;53.616;10.032;2023-05-10T13:56:25;18.60;1.00
10873;DHT22;34586;53.616;10.032;2023-05-10T13:58:50;18.60;1.00
10873;DHT22;34586;53.616;10.032;2023-05-10T14:01:16;18.60;99.90
10873;DHT22;34586;53.616;10.032;2023-05-10T14:03:42;18.60;1.00
10873;DHT22;34586;53.616;10.032;2023-05-10T14:06:07;18.60;1.00
10873;DHT22;34586;53.616;10.032;2023-05-10T14:08:34;18.80;1.00
10873;DHT22;34586;53.616;10.032;2023-05-10T14:11:00;18.80;1.00
10873;DHT22;34586;53.616;10.032;2023-05-10T14:13:26;18.70;99.90
10873;DHT22;34586;53.616;10.032;2023-05-10T14:15:54;18.70;99.90
10873;DHT22;34586;53.616;10.032;2023-05-10T14:18:20;18.70;1.00
10873;DHT22;34586;53.616;10.032;2023-05-10T14:20:46;18.70;1.00
10873;DHT22;34586;53.616;10.032;2023-05-10T14:23:12;18.70;1.00
10873;DHT22;34586;53.616;10.032;2023-05-10T14:25:39;18.70;99.90
10873;DHT22;34586;53.616;10.032;2023-05-10T14:28:05;18.80;1.00
10873;DHT22;34586;53.616;10.032;2023-05-10T14:30:31;18.70;1.00
10873;DHT22;34586;53.616;10.032;2023-05-10T14:32:57;18.90;99.90
10873;DHT22;34586;53.616;10.032;2023-05-10T14:35:24;19.00;99.90
10873;DHT22;34586;53.616;10.032;2023-05-10T14:37:49;19.10;1.00
10873;DHT22;34586;53.616;10.032;2023-05-10T14:40:15;19.20;1.00
10873;DHT22;34586;53.616;10.032;2023-05-10T14:42:42;19.20;1.00
10873;DHT22;34586;53.616;10.032;2023-05-10T14:45:09;19.30;1.00
10873;DHT22;34586;53.616;10.032;2023-05-10T14:47:35;19.50;1.00
10873;DHT22;34586;53.616;10.032;2023-05-10T14:50:00;19.30;99.90
10873;DHT22;34586;53.616;10.032;2023-05-10T14:52:26;19.10;99.90
10873;DHT22;34586;53.616;10.032;2023-05-10T14:54:52;19.00;1.00
10873;DHT22;34586;53.616;10.032;2023-05-10T14:57:17;19.00;1.00
10873;DHT22;34586;53.616;10.032;2023-05-10T14:59:43;18.80;1.00
10873;DHT22;34586;53.616;10.032;2023-05-10T15:02:09;18.70;99.90
10873;DHT22;34586;53.616;10.032;2023-05-10T15:04:35;18.60;99.90
10873;DHT22;34586;53.616;10.032;2023-05-10T15:07:01;18.70;1.00
10873;DHT22;34586;53.616;10.032;2023-05-10T15:09:26;18.70;99.90
10873;DHT22;34586;53.616;10.032;2023-05-10T15:11:55;18.80;1.00
10873;DHT22;34586;53.616;10.032;2023-05-10T15:14:22;18.70;2.80
10873;DHT22;34586;53.616;10.032;2023-05-10T15:16:47;18.60;99.90
10873;DHT22;34586;53.616;10.032;2023-05-10T15:19:13;18.50;99.90
10873;DHT22;34586;53.616;10.032;2023-05-10T15:21:39;18.50;1.00
10873;DHT22;34586;53.616;10.032;2023-05-10T15:24:07;18.40;99.90
10873;DHT22;34586;53.616;10.032;2023-05-10T15:26:33;18.40;1.00
10873;DHT22;34586;53.616;10.032;2023-05-10T15:28:58;18.20;1.00
10873;DHT22;34586;53.616;10.032;2023-05-10T15:31:24;18.10;1.00
10873;DHT22;34586;53.616;10.032;2023-05-10T15:33:50;18.20;1.00
10873;DHT22;34586;53.616;10.032;2023-05-10T15:36:16;18.20;92.90
10873;DHT22;34586;53.616;10.032;2023-05-10T15:38:43;18.40;1.00
10873;DHT22;34586;53.616;10.032;2023-05-10T15:41:08;18.50;99.90
10873;DHT22;34586;53.616;10.032;2023-05-10T15:43:34;18.50;1.00
10873;DHT22;34586;53.616;10.032;2023-05-10T15:46:00;18.40;1.00
10873;DHT22;34586;53.616;10.032;2023-05-10T15:48:25;18.50;99.90
10873;DHT22;34586;53.616;10.032;2023-05-10T15:50:51;18.60;1.00
10873;DHT22;34586;53.616;10.032;2023-05-10T15:53:16;18.60;99.90
10873;DHT22;34586;53.616;10.032;2023-05-10T15:55:42;18.60;99.90
10873;DHT22;34586;53.616;10.032;2023-05-10T15:58:08;18.70;99.90